Altamont, New York
Current Conditions -  °F | °C
As of 2:00 AM on Monday 22 Dec 2014 (Local Time) from KALB Reporting Station
Overcast Overcast  
Wind Chill: 30°   Ceiling: 2600
Heat Index: 30°   Visibility: 10mi
Dew Point: 23°   Wind: 3mph
Humidity: 75%   Direction: 350°N
Pressure: 30.37"   Gusts: NA
Location:  42.7°N, 74.03°W
Report Text: KALB 220700Z 35003KT 10SM BKN026 OVC041 M01/M05 A3037 RMK AO2 BKN V SCT T10111050
Loading
Personal Weather Stations






























Interactive Weather Map New forecast layout! Learn more

10-Day Weather Forecast

Advertisements
Track Severe Weather on mobile